Time;durP1;ratioP1;P1;durP2;ratioP2;P2;SDS_P1;SDS_P2;PMS_P1;PMS_P2;Temp;Humidity;BMP_temperature;BMP_pressure;BME280_temperature;BME280_humidity;BME280_pressure;Samples;Min_cycle;Max_cycle;Signal;HPM_P1;HPM_P2
2021/06/27 00:00:52;;;;;;;24.48;21.88;;;17.50;99.50;;;;;;2104919;28;20031;-71
2021/06/27 00:01:53;;;;;;;24.23;21.55;;;17.50;99.40;;;;;;2104939;28;20016;-68
2021/06/27 00:02:53;;;;;;;23.80;21.30;;;17.50;99.40;;;;;;2104953;28;20124;-68
2021/06/27 00:03:55;;;;;;;24.00;21.40;;;17.50;99.40;;;;;;2104947;28;20021;-68
2021/06/27 00:04:55;;;;;;;24.50;20.88;;;17.50;99.40;;;;;;2095972;28;20032;-68
2021/06/27 00:05:56;;;;;;;25.35;22.23;;;17.40;99.40;;;;;;2096126;28;20037;-70
2021/06/27 00:06:57;;;;;;;24.80;22.23;;;17.40;99.40;;;;;;2105114;28;20039;-69
2021/06/27 00:07:58;;;;;;;24.45;21.88;;;17.40;99.60;;;;;;2105028;28;20032;-70
2021/06/27 00:08:58;;;;;;;23.95;21.40;;;17.40;99.70;;;;;;2103910;28;20032;-69
2021/06/27 00:09:59;;;;;;;23.10;20.70;;;17.40;99.80;;;;;;2095802;28;20172;-68
2021/06/27 00:11:01;;;;;;;26.05;23.25;;;17.40;99.90;;;;;;2096084;28;20108;-69
2021/06/27 00:12:01;;;;;;;25.52;22.98;;;17.40;99.90;;;;;;2096129;28;20095;-68
2021/06/27 00:13:03;;;;;;;24.50;22.00;;;17.40;99.90;;;;;;2096125;28;20028;-68
2021/06/27 00:14:05;;;;;;;25.58;22.70;;;17.40;99.80;;;;;;2104671;28;20039;-68
2021/06/27 00:15:12;;;;;;;23.77;21.27;;;17.40;99.80;;;;;;2104815;28;20059;-69
2021/06/27 00:16:13;;;;;;;27.58;22.27;;;17.30;99.80;;;;;;2095994;28;20036;-68
2021/06/27 00:17:14;;;;;;;24.33;21.83;;;17.30;99.80;;;;;;2095966;28;20076;-68
2021/06/27 00:18:17;;;;;;;24.23;21.63;;;17.30;99.90;;;;;;2104945;28;20086;-70
2021/06/27 00:19:20;;;;;;;25.30;21.85;;;17.30;99.70;;;;;;2103822;28;20032;-68
2021/06/27 00:20:24;;;;;;;28.40;23.40;;;17.30;99.90;;;;;;2104619;28;20020;-68
2021/06/27 00:21:25;;;;;;;24.92;22.15;;;17.30;99.60;;;;;;2104569;28;20032;-69
2021/06/27 00:22:26;;;;;;;25.88;22.17;;;17.30;99.60;;;;;;2104835;28;20096;-69
2021/06/27 00:23:31;;;;;;;24.58;21.98;;;17.20;99.60;;;;;;2096007;28;20544;-69
2021/06/27 00:24:31;;;;;;;27.00;22.85;;;17.20;99.70;;;;;;2096620;28;20043;-68
2021/06/27 00:25:35;;;;;;;24.15;21.65;;;17.20;99.60;;;;;;2095917;28;20422;-68
2021/06/27 00:26:35;;;;;;;23.58;21.08;;;17.20;99.70;;;;;;2096634;28;20017;-69
2021/06/27 00:27:39;;;;;;;23.98;21.48;;;17.20;99.70;;;;;;2104882;28;20076;-68
2021/06/27 00:28:41;;;;;;;24.05;21.08;;;17.20;99.70;;;;;;2104501;28;20465;-68
2021/06/27 00:29:41;;;;;;;24.48;21.63;;;17.20;99.70;;;;;;2107000;28;20591;-69
2021/06/27 00:30:45;;;;;;;24.33;21.83;;;17.20;99.80;;;;;;2107662;28;20023;-68
2021/06/27 00:31:46;;;;;;;24.73;22.17;;;17.20;99.80;;;;;;2106935;28;20039;-69
2021/06/27 00:32:47;;;;;;;23.10;20.60;;;17.20;99.90;;;;;;2106903;28;20066;-69
2021/06/27 00:33:47;;;;;;;24.48;21.73;;;17.10;99.80;;;;;;2106782;28;20063;-68
2021/06/27 00:34:48;;;;;;;24.23;21.63;;;17.10;99.80;;;;;;2097548;28;20032;-70
2021/06/27 00:35:50;;;;;;;26.10;22.02;;;17.10;99.90;;;;;;2097379;28;20037;-69
2021/06/27 00:36:50;;;;;;;24.08;21.48;;;17.10;99.90;;;;;;2106417;28;20501;-68
2021/06/27 00:37:51;;;;;;;23.20;20.77;;;17.10;99.90;;;;;;2105829;28;20052;-69
2021/06/27 00:38:52;;;;;;;25.23;21.30;;;17.10;99.90;;;;;;2095506;28;20028;-70
2021/06/27 00:39:53;;;;;;;23.02;20.65;;;17.10;99.90;;;;;;2096507;28;20036;-68
2021/06/27 00:40:53;;;;;;;22.23;19.85;;;17.00;99.90;;;;;;2106279;28;20032;-68
2021/06/27 00:41:54;;;;;;;22.65;20.20;;;17.00;99.90;;;;;;2106231;28;20028;-69
2021/06/27 00:42:55;;;;;;;22.83;20.48;;;17.00;99.90;;;;;;2106264;28;20107;-69
2021/06/27 00:43:56;;;;;;;25.27;22.58;;;17.00;99.90;;;;;;2097423;28;20554;-69
2021/06/27 00:44:56;;;;;;;25.90;22.20;;;17.00;99.90;;;;;;2088812;28;20041;-69
2021/06/27 00:45:59;;;;;;;26.40;21.98;;;17.00;99.90;;;;;;2097313;28;20036;-70
2021/06/27 00:46:59;;;;;;;23.75;21.40;;;17.00;99.90;;;;;;2097364;28;20029;-69
2021/06/27 00:48:01;;;;;;;23.50;21.05;;;17.00;99.90;;;;;;2106307;28;20043;-69
2021/06/27 00:49:02;;;;;;;23.80;21.40;;;17.00;99.90;;;;;;2105201;28;20398;-69
2021/06/27 00:50:05;;;;;;;24.92;21.95;;;17.00;99.90;;;;;;2105939;28;20020;-70
2021/06/27 00:51:06;;;;;;;25.58;21.15;;;17.00;99.90;;;;;;2105901;28;20077;-69
2021/06/27 00:52:06;;;;;;;23.27;20.88;;;16.90;99.90;;;;;;2106239;28;20032;-69
2021/06/27 00:53:08;;;;;;;23.77;21.27;;;16.90;99.90;;;;;;2106182;28;20024;-70
2021/06/27 00:54:09;;;;;;;23.45;21.02;;;16.90;99.90;;;;;;2106290;28;20032;-69
2021/06/27 00:55:10;;;;;;;25.27;22.58;;;16.90;99.90;;;;;;2105927;28;20733;-69
2021/06/27 00:56:10;;;;;;;23.50;21.10;;;16.90;99.90;;;;;;2097304;28;20033;-69
2021/06/27 00:57:11;;;;;;;24.67;21.85;;;16.90;99.90;;;;;;2097161;28;20059;-69
2021/06/27 00:58:12;;;;;;;24.23;21.73;;;16.80;99.90;;;;;;2106157;28;20505;-69
2021/06/27 00:59:13;;;;;;;25.13;22.42;;;16.80;99.90;;;;;;2087983;28;20029;-69
2021/06/27 01:00:28;;;;;;;24.80;22.20;;;16.80;99.90;;;;;;2088829;28;20025;-69
2021/06/27 01:01:29;;;;;;;24.00;21.48;;;16.80;99.90;;;;;;2106023;28;20073;-68
2021/06/27 01:02:29;;;;;;;24.90;22.23;;;16.80;99.90;;;;;;2097277;28;20529;-68
2021/06/27 01:03:30;;;;;;;24.33;21.60;;;16.80;99.90;;;;;;2097032;28;20029;-70
2021/06/27 01:04:31;;;;;;;25.25;22.55;;;16.80;99.90;;;;;;2097048;28;20036;-68
2021/06/27 01:05:35;;;;;;;25.35;22.55;;;16.70;99.90;;;;;;2097030;28;20113;-68
2021/06/27 01:06:36;;;;;;;24.17;21.60;;;16.80;99.90;;;;;;2106159;28;20032;-69
2021/06/27 01:07:37;;;;;;;24.63;21.70;;;16.70;99.90;;;;;;2105995;28;20435;-68
2021/06/27 01:08:38;;;;;;;24.00;21.40;;;16.70;99.90;;;;;;2105102;28;20035;-68
2021/06/27 01:09:39;;;;;;;25.17;21.85;;;16.70;99.90;;;;;;2105725;28;20016;-69
2021/06/27 01:10:40;;;;;;;23.35;20.88;;;16.70;99.90;;;;;;2106042;28;20729;-69
2021/06/27 01:11:41;;;;;;;23.77;21.25;;;16.70;99.90;;;;;;2097146;28;20067;-69
2021/06/27 01:12:42;;;;;;;24.67;21.65;;;16.70;99.90;;;;;;2088769;28;20033;-69
2021/06/27 01:13:43;;;;;;;24.25;21.73;;;16.70;99.90;;;;;;2097130;28;20020;-69
2021/06/27 01:14:43;;;;;;;24.55;21.77;;;16.60;99.90;;;;;;2106071;28;20540;-69
2021/06/27 01:15:44;;;;;;;25.98;22.58;;;16.60;99.90;;;;;;2106112;28;20023;-69
2021/06/27 01:16:45;;;;;;;26.02;21.88;;;16.60;99.90;;;;;;2105915;28;20024;-69
2021/06/27 01:17:47;;;;;;;23.63;21.13;;;16.60;99.90;;;;;;2097055;28;20039;-69
2021/06/27 01:18:52;;;;;;;23.63;21.13;;;16.60;99.90;;;;;;2096253;28;20064;-69
2021/06/27 01:19:53;;;;;;;24.70;22.05;;;16.60;99.90;;;;;;2105841;28;20055;-69
2021/06/27 01:20:54;;;;;;;24.38;21.42;;;16.60;99.90;;;;;;2105874;28;20028;-69
2021/06/27 01:21:54;;;;;;;24.45;21.63;;;16.60;99.90;;;;;;2105851;28;20032;-68
2021/06/27 01:22:57;;;;;;;24.45;21.45;;;16.60;99.90;;;;;;2105958;28;20035;-69
2021/06/27 01:23:57;;;;;;;23.90;21.40;;;16.60;99.90;;;;;;2106127;28;20024;-68
2021/06/27 01:24:58;;;;;;;24.58;21.88;;;16.60;99.90;;;;;;2096934;28;20119;-69
2021/06/27 01:25:59;;;;;;;24.05;21.40;;;16.50;99.90;;;;;;2096718;28;20028;-68
2021/06/27 01:26:59;;;;;;;23.58;21.17;;;16.50;99.90;;;;;;2105870;28;20928;-69
2021/06/27 01:28:01;;;;;;;23.52;21.13;;;16.50;99.90;;;;;;2105994;28;20036;-68
2021/06/27 01:29:03;;;;;;;24.00;21.42;;;16.50;99.90;;;;;;2096159;28;20402;-68
2021/06/27 01:30:08;;;;;;;24.60;21.52;;;16.50;99.90;;;;;;2096944;28;20036;-68
2021/06/27 01:31:09;;;;;;;22.85;20.40;;;16.50;99.90;;;;;;2106069;28;20028;-69
2021/06/27 01:32:11;;;;;;;23.98;21.42;;;16.50;99.90;;;;;;2105692;28;20036;-69
2021/06/27 01:33:15;;;;;;;25.63;22.40;;;16.50;99.90;;;;;;2096804;28;20541;-69
2021/06/27 01:34:16;;;;;;;23.45;20.95;;;16.50;99.90;;;;;;2088683;28;20029;-70
2021/06/27 01:35:18;;;;;;;23.90;20.65;;;16.50;99.90;;;;;;2096881;28;20404;-70
2021/06/27 01:36:20;;;;;;;25.13;21.85;;;16.50;99.90;;;;;;2105843;28;20017;-69
2021/06/27 01:37:21;;;;;;;23.67;21.23;;;16.50;99.90;;;;;;2105946;28;20028;-69
2021/06/27 01:38:22;;;;;;;23.25;20.77;;;16.50;99.90;;;;;;2105790;28;20098;-69
2021/06/27 01:39:22;;;;;;;23.75;21.10;;;16.50;99.90;;;;;;2105267;28;20062;-69
2021/06/27 01:40:28;;;;;;;23.90;20.92;;;16.50;99.90;;;;;;2104964;28;20074;-69
2021/06/27 01:41:28;;;;;;;24.00;21.60;;;16.50;99.90;;;;;;2105789;28;20020;-69
2021/06/27 01:42:29;;;;;;;24.05;21.52;;;16.40;99.90;;;;;;2096644;28;20107;-69
2021/06/27 01:43:29;;;;;;;26.13;22.60;;;16.40;99.90;;;;;;2096902;28;20021;-68
2021/06/27 01:44:30;;;;;;;24.52;21.92;;;16.40;99.90;;;;;;2105830;28;20591;-69
2021/06/27 01:45:31;;;;;;;23.92;21.33;;;16.40;99.90;;;;;;2105873;28;20031;-69
2021/06/27 01:46:31;;;;;;;24.08;21.58;;;16.40;99.90;;;;;;2096524;28;20044;-69
2021/06/27 01:47:32;;;;;;;26.20;21.75;;;16.40;99.90;;;;;;2096842;28;20036;-69
2021/06/27 01:48:34;;;;;;;23.10;20.80;;;16.40;99.90;;;;;;2104673;28;20488;-69
2021/06/27 01:49:35;;;;;;;23.48;21.08;;;16.30;99.90;;;;;;2093725;28;20028;-69
2021/06/27 01:50:38;;;;;;;24.50;21.85;;;16.30;99.90;;;;;;2096296;28;20052;-69
2021/06/27 01:51:40;;;;;;;24.92;21.63;;;16.30;99.90;;;;;;2096494;28;20048;-69
2021/06/27 01:52:40;;;;;;;23.52;21.02;;;16.30;99.90;;;;;;2096852;28;20435;-69
2021/06/27 01:53:41;;;;;;;23.08;20.67;;;16.30;99.90;;;;;;2105455;28;20024;-69
2021/06/27 01:54:42;;;;;;;23.33;20.92;;;16.30;99.90;;;;;;2105672;28;20077;-68
2021/06/27 01:55:43;;;;;;;27.20;21.50;;;16.30;99.90;;;;;;2105649;28;20108;-68
2021/06/27 01:56:44;;;;;;;24.05;20.55;;;16.30;99.90;;;;;;2106013;28;20022;-69
2021/06/27 01:57:45;;;;;;;23.63;21.13;;;16.30;99.90;;;;;;2105812;28;20470;-69
2021/06/27 01:58:51;;;;;;;23.40;20.80;;;16.30;99.90;;;;;;2105062;28;20546;-69
2021/06/27 01:59:52;;;;;;;23.45;20.95;;;16.30;99.90;;;;;;2096750;28;20029;-69
2021/06/27 02:00:53;;;;;;;23.48;20.85;;;16.20;99.90;;;;;;2096428;28;20028;-69
2021/06/27 02:01:53;;;;;;;24.58;21.27;;;16.20;99.90;;;;;;2105403;28;20090;-69
2021/06/27 02:02:55;;;;;;;24.40;21.23;;;16.20;99.90;;;;;;2105649;28;20538;-69
2021/06/27 02:03:55;;;;;;;22.52;20.13;;;16.20;99.90;;;;;;2105761;28;20031;-69
2021/06/27 02:04:56;;;;;;;23.58;20.65;;;16.10;99.90;;;;;;2105423;28;20661;-68
2021/06/27 02:05:58;;;;;;;22.05;19.75;;;16.10;99.90;;;;;;2105766;28;20135;-69
2021/06/27 02:07:00;;;;;;;23.30;20.55;;;16.20;99.90;;;;;;2105779;28;20032;-69
2021/06/27 02:08:01;;;;;;;24.33;21.45;;;16.20;99.90;;;;;;2105555;28;20056;-69
2021/06/27 02:09:05;;;;;;;22.95;20.65;;;16.10;99.90;;;;;;2104493;28;20036;-69
2021/06/27 02:10:17;;;;;;;24.13;20.05;;;16.10;99.90;;;;;;2096129;28;20081;-69
2021/06/27 02:11:21;;;;;;;24.25;19.98;;;16.10;99.90;;;;;;2089736;28;20035;-68
2021/06/27 02:12:21;;;;;;;23.73;21.23;;;16.00;99.90;;;;;;2096916;28;20032;-69
2021/06/27 02:13:22;;;;;;;26.98;21.85;;;16.10;99.90;;;;;;2096575;28;20491;-70
2021/06/27 02:14:22;;;;;;;24.17;20.98;;;16.10;99.90;;;;;;2096420;28;20025;-69
2021/06/27 02:15:23;;;;;;;24.08;21.15;;;16.10;99.90;;;;;;2105458;28;20077;-69
2021/06/27 02:16:26;;;;;;;24.10;21.48;;;16.00;99.90;;;;;;2105484;28;20393;-69
2021/06/27 02:17:26;;;;;;;22.38;20.02;;;16.00;99.90;;;;;;2105554;28;20036;-69
2021/06/27 02:18:30;;;;;;;23.00;20.50;;;16.00;99.90;;;;;;2105067;28;20021;-69
2021/06/27 02:19:32;;;;;;;22.13;19.85;;;16.00;99.90;;;;;;2105757;28;20406;-69
2021/06/27 02:20:33;;;;;;;22.63;20.27;;;16.00;99.90;;;;;;2105456;28;20498;-70
2021/06/27 02:21:36;;;;;;;23.50;20.35;;;16.00;99.90;;;;;;2096427;28;20038;-69
2021/06/27 02:22:36;;;;;;;23.77;21.13;;;16.00;99.90;;;;;;2096356;28;20124;-69
2021/06/27 02:23:38;;;;;;;24.52;20.50;;;16.00;99.90;;;;;;2105779;28;20027;-69
2021/06/27 02:24:38;;;;;;;23.50;21.02;;;16.00;99.90;;;;;;2105791;28;20038;-69
2021/06/27 02:25:39;;;;;;;23.17;20.70;;;15.90;99.90;;;;;;2105849;28;20039;-70
2021/06/27 02:26:40;;;;;;;24.52;21.15;;;15.90;99.90;;;;;;2105510;28;20035;-69
2021/06/27 02:27:40;;;;;;;22.27;19.88;;;15.90;99.90;;;;;;2105543;28;20024;-70
2021/06/27 02:28:42;;;;;;;23.10;20.70;;;15.90;99.90;;;;;;2104743;28;20027;-69
2021/06/27 02:29:43;;;;;;;22.75;20.30;;;15.90;99.90;;;;;;2096194;28;20029;-69
2021/06/27 02:30:44;;;;;;;23.42;20.83;;;15.90;99.90;;;;;;2096158;28;20384;-69
2021/06/27 02:31:49;;;;;;;22.30;20.00;;;15.90;99.90;;;;;;2096488;28;20085;-69
2021/06/27 02:32:50;;;;;;;21.20;18.90;;;15.90;99.90;;;;;;2097189;28;20024;-69
2021/06/27 02:33:51;;;;;;;22.30;20.00;;;15.90;99.90;;;;;;2105684;28;20034;-69
2021/06/27 02:34:52;;;;;;;21.27;19.00;;;15.80;99.90;;;;;;2105446;28;20462;-69
2021/06/27 02:35:52;;;;;;;22.55;20.15;;;15.90;99.90;;;;;;2105583;28;20020;-69
2021/06/27 02:36:53;;;;;;;22.63;19.88;;;15.90;99.90;;;;;;2105414;28;20028;-69
2021/06/27 02:37:54;;;;;;;23.60;19.90;;;15.90;99.90;;;;;;2105270;28;20035;-69
2021/06/27 02:38:55;;;;;;;22.15;19.85;;;15.90;99.90;;;;;;2095364;28;20024;-69
2021/06/27 02:39:55;;;;;;;23.10;20.52;;;15.80;99.90;;;;;;2096252;28;20036;-69
2021/06/27 02:40:56;;;;;;;22.40;20.05;;;15.80;99.90;;;;;;2105059;28;20039;-69
2021/06/27 02:41:57;;;;;;;22.35;20.05;;;15.80;99.90;;;;;;2105502;28;20483;-70
2021/06/27 02:42:57;;;;;;;23.58;20.48;;;15.80;99.90;;;;;;2105442;28;20024;-69
2021/06/27 02:43:58;;;;;;;24.75;20.33;;;15.80;99.90;;;;;;2096447;28;20479;-70
2021/06/27 02:44:59;;;;;;;22.30;20.00;;;15.80;99.90;;;;;;2096189;28;20028;-69
2021/06/27 02:45:59;;;;;;;24.00;20.08;;;15.80;99.90;;;;;;2105153;28;20032;-69
2021/06/27 02:47:00;;;;;;;21.92;19.23;;;15.80;99.90;;;;;;2105356;28;20032;-70
2021/06/27 02:48:01;;;;;;;22.38;20.02;;;15.70;99.90;;;;;;2105368;28;20030;-69
2021/06/27 02:49:01;;;;;;;23.15;20.65;;;15.70;99.90;;;;;;2095316;28;20075;-69
2021/06/27 02:50:05;;;;;;;23.00;20.23;;;15.70;99.90;;;;;;2088804;28;20082;-69
2021/06/27 02:51:06;;;;;;;21.98;19.55;;;15.70;99.90;;;;;;2096332;28;20044;-69
2021/06/27 02:52:06;;;;;;;23.42;19.40;;;15.70;99.90;;;;;;2104774;28;20028;-69
2021/06/27 02:53:08;;;;;;;22.52;20.23;;;15.70;99.90;;;;;;2104794;28;20032;-69
2021/06/27 02:54:08;;;;;;;21.05;18.83;;;15.70;99.90;;;;;;2096041;28;20408;-69
2021/06/27 02:55:12;;;;;;;20.90;18.70;;;15.70;99.90;;;;;;2096010;28;20035;-68
2021/06/27 02:56:13;;;;;;;21.10;18.85;;;15.70;99.90;;;;;;2105371;28;20024;-69
2021/06/27 02:57:13;;;;;;;24.92;20.45;;;15.70;99.90;;;;;;2105290;28;20016;-69
2021/06/27 02:58:14;;;;;;;20.60;18.42;;;15.60;99.90;;;;;;2104789;28;20093;-69
2021/06/27 02:59:15;;;;;;;22.23;19.90;;;15.70;99.90;;;;;;2095482;28;20572;-69
2021/06/27 03:00:18;;;;;;;20.63;18.52;;;15.70;99.90;;;;;;2096190;28;20475;-68
2021/06/27 03:01:19;;;;;;;21.98;19.20;;;15.60;99.90;;;;;;2105436;28;20035;-69
2021/06/27 03:02:20;;;;;;;20.67;18.50;;;15.60;99.90;;;;;;2105343;28;20028;-69
2021/06/27 03:03:20;;;;;;;22.02;19.73;;;15.60;99.90;;;;;;2105648;28;20087;-68
2021/06/27 03:04:21;;;;;;;21.77;19.55;;;15.60;99.90;;;;;;2105504;28;20028;-69
2021/06/27 03:05:22;;;;;;;23.25;20.23;;;15.60;99.90;;;;;;2104946;28;20485;-69
2021/06/27 03:06:22;;;;;;;20.92;18.73;;;15.60;99.90;;;;;;2105153;28;20206;-69
2021/06/27 03:07:23;;;;;;;21.92;19.52;;;15.60;99.90;;;;;;2096379;28;20086;-69
2021/06/27 03:08:23;;;;;;;22.33;20.02;;;15.60;99.90;;;;;;2096045;28;20037;-68
2021/06/27 03:09:24;;;;;;;22.27;19.83;;;15.60;99.90;;;;;;2105098;28;20528;-69
2021/06/27 03:10:24;;;;;;;22.10;19.75;;;15.60;99.90;;;;;;2105830;28;20038;-69
2021/06/27 03:11:25;;;;;;;23.45;19.20;;;15.60;99.90;;;;;;2105469;28;20032;-69
2021/06/27 03:12:26;;;;;;;22.80;20.23;;;15.60;99.90;;;;;;2105093;28;20032;-68
2021/06/27 03:13:27;;;;;;;23.48;19.40;;;15.60;99.90;;;;;;2096015;28;20039;-69
2021/06/27 03:14:27;;;;;;;22.27;19.88;;;15.60;99.90;;;;;;2087401;28;20020;-69
2021/06/27 03:15:28;;;;;;;21.25;19.08;;;15.60;99.90;;;;;;2096419;28;20020;-69
2021/06/27 03:16:28;;;;;;;22.30;19.90;;;15.60;99.90;;;;;;2096172;28;20024;-69
2021/06/27 03:17:29;;;;;;;22.02;19.45;;;15.60;99.90;;;;;;2096473;28;20021;-69
2021/06/27 03:18:30;;;;;;;20.90;18.50;;;15.60;99.90;;;;;;2095553;28;20468;-69
2021/06/27 03:19:30;;;;;;;22.98;19.42;;;15.60;99.90;;;;;;2095690;28;20066;-69
2021/06/27 03:20:31;;;;;;;22.83;20.23;;;15.60;99.90;;;;;;2095768;28;20111;-69
2021/06/27 03:21:32;;;;;;;21.58;19.38;;;15.60;99.90;;;;;;2104887;28;20032;-69
2021/06/27 03:22:32;;;;;;;22.02;19.73;;;15.70;99.90;;;;;;2105107;28;20028;-69
2021/06/27 03:23:33;;;;;;;23.00;19.73;;;15.60;99.90;;;;;;2105101;28;20031;-69
2021/06/27 03:24:33;;;;;;;22.48;18.98;;;15.60;99.90;;;;;;2095988;28;20585;-69
2021/06/27 03:25:35;;;;;;;21.30;19.00;;;15.60;99.90;;;;;;2087891;28;20527;-69
2021/06/27 03:26:35;;;;;;;20.77;18.67;;;15.70;99.90;;;;;;2095957;28;20021;-69
2021/06/27 03:27:37;;;;;;;21.67;19.38;;;15.70;99.90;;;;;;2087600;28;20059;-68
2021/06/27 03:28:38;;;;;;;21.80;19.35;;;15.70;99.90;;;;;;2095331;28;20657;-69
2021/06/27 03:29:39;;;;;;;22.10;19.73;;;15.70;99.90;;;;;;2096052;28;20073;-69
2021/06/27 03:30:40;;;;;;;20.33;18.23;;;15.70;99.90;;;;;;2087304;28;20041;-69
2021/06/27 03:31:40;;;;;;;21.80;18.77;;;15.70;99.90;;;;;;2088131;28;20021;-69
2021/06/27 03:32:41;;;;;;;20.30;18.20;;;15.70;99.90;;;;;;2096642;28;20020;-69
2021/06/27 03:33:41;;;;;;;20.92;18.83;;;15.70;99.90;;;;;;2105719;28;20032;-69
2021/06/27 03:34:42;;;;;;;21.98;19.60;;;15.70;99.90;;;;;;2096447;28;20025;-69
2021/06/27 03:35:43;;;;;;;22.13;19.48;;;15.80;99.90;;;;;;2095775;28;20074;-69
2021/06/27 03:36:43;;;;;;;24.25;19.50;;;15.80;99.90;;;;;;2096223;28;20032;-69
2021/06/27 03:37:54;;;;;;;22.52;18.80;;;15.80;99.90;;;;;;2096274;28;20056;-69
2021/06/27 03:40:03;;;;;;;22.38;19.65;;;15.80;99.90;;;;;;2105110;28;20106;-69
2021/06/27 03:41:03;;;;;;;20.88;18.67;;;15.80;99.90;;;;;;2095902;28;20545;-69
2021/06/27 03:42:04;;;;;;;20.33;18.17;;;15.80;99.90;;;;;;2096311;28;20028;-69
2021/06/27 03:43:05;;;;;;;21.98;19.70;;;15.80;99.90;;;;;;2096190;28;20578;-69
2021/06/27 03:44:06;;;;;;;21.40;19.23;;;15.80;99.90;;;;;;2088269;28;20831;-69
2021/06/27 03:45:07;;;;;;;21.88;19.25;;;15.90;99.90;;;;;;2096311;28;20415;-69
2021/06/27 03:46:08;;;;;;;22.58;18.65;;;15.90;99.90;;;;;;2105203;28;20028;-69
2021/06/27 03:47:09;;;;;;;21.48;18.75;;;15.90;99.90;;;;;;2096263;28;20154;-69
2021/06/27 03:48:10;;;;;;;21.75;19.55;;;15.90;99.90;;;;;;2096209;28;20074;-70
2021/06/27 03:49:10;;;;;;;22.35;19.95;;;15.90;99.90;;;;;;2104224;28;20126;-68
2021/06/27 03:50:12;;;;;;;21.92;19.73;;;15.90;99.90;;;;;;2104812;28;20058;-69
2021/06/27 03:51:13;;;;;;;21.50;19.30;;;15.90;99.90;;;;;;2104941;28;20040;-69
2021/06/27 03:52:13;;;;;;;21.15;18.95;;;16.00;99.90;;;;;;2104895;28;20024;-69
2021/06/27 03:53:14;;;;;;;21.08;18.88;;;16.00;99.90;;;;;;2105061;28;20126;-69
2021/06/27 03:54:15;;;;;;;21.50;19.05;;;16.00;99.90;;;;;;2105115;28;20799;-68
2021/06/27 03:55:19;;;;;;;21.48;19.17;;;16.00;99.90;;;;;;2104816;28;20036;-69
2021/06/27 03:56:20;;;;;;;22.73;18.42;;;16.00;99.90;;;;;;2105002;28;20065;-69
2021/06/27 03:57:21;;;;;;;20.80;18.60;;;16.10;99.90;;;;;;2105084;28;20027;-69
2021/06/27 03:58:21;;;;;;;21.00;18.58;;;16.10;99.90;;;;;;2104963;28;20093;-69
2021/06/27 03:59:22;;;;;;;21.05;18.95;;;16.10;99.90;;;;;;2095317;28;20028;-69
2021/06/27 04:00:23;;;;;;;21.30;19.10;;;16.10;99.90;;;;;;2096108;28;20036;-69
2021/06/27 04:01:23;;;;;;;22.27;19.95;;;16.10;99.90;;;;;;2105012;28;20023;-68
2021/06/27 04:02:24;;;;;;;20.77;18.70;;;16.20;99.90;;;;;;2104951;28;20038;-69
2021/06/27 04:03:25;;;;;;;21.70;18.52;;;16.20;99.90;;;;;;2105043;28;20035;-69
2021/06/27 04:04:25;;;;;;;19.40;17.42;;;16.20;99.90;;;;;;2106234;28;20032;-69
2021/06/27 04:05:26;;;;;;;19.40;17.40;;;16.30;99.90;;;;;;2106574;28;20032;-69
2021/06/27 04:06:27;;;;;;;19.13;17.13;;;16.50;99.90;;;;;;2106451;28;20232;-69
2021/06/27 04:07:27;;;;;;;19.35;17.08;;;16.80;99.50;;;;;;2106722;28;20463;-69
2021/06/27 04:08:28;;;;;;;18.92;16.58;;;17.10;98.60;;;;;;2106091;28;20102;-69
2021/06/27 04:09:28;;;;;;;17.25;15.55;;;17.50;97.50;;;;;;2097422;28;20038;-69
2021/06/27 04:10:29;;;;;;;18.05;16.15;;;17.80;96.60;;;;;;2089225;28;20033;-69
2021/06/27 04:11:29;;;;;;;16.23;14.63;;;18.20;95.60;;;;;;2097670;28;20431;-69
2021/06/27 04:12:30;;;;;;;16.35;14.65;;;18.60;94.40;;;;;;2106691;28;20074;-69
2021/06/27 04:13:32;;;;;;;16.30;14.70;;;18.90;93.30;;;;;;2106432;28;20133;-69
2021/06/27 04:14:33;;;;;;;15.60;14.07;;;19.20;92.00;;;;;;2106520;28;20070;-69
2021/06/27 04:15:34;;;;;;;15.70;14.07;;;19.50;90.90;;;;;;2089419;28;20025;-69
2021/06/27 04:16:35;;;;;;;14.95;13.27;;;19.70;90.10;;;;;;2089200;28;20052;-69
2021/06/27 04:17:36;;;;;;;14.27;12.88;;;19.90;89.00;;;;;;2106638;28;20499;-69
2021/06/27 04:18:37;;;;;;;15.07;13.57;;;20.20;87.40;;;;;;2105451;28;20073;-69
2021/06/27 04:19:38;;;;;;;14.15;12.75;;;20.40;85.60;;;;;;2106556;28;20024;-69
2021/06/27 04:20:38;;;;;;;14.95;13.45;;;20.60;84.40;;;;;;2106233;28;20823;-69
2021/06/27 04:21:39;;;;;;;14.43;13.05;;;20.80;83.20;;;;;;2097418;28;20055;-69
2021/06/27 04:22:40;;;;;;;14.85;13.35;;;21.00;82.10;;;;;;2097691;28;20024;-69
2021/06/27 04:23:41;;;;;;;13.88;12.57;;;21.20;81.00;;;;;;2097517;28;20063;-69
2021/06/27 04:24:41;;;;;;;14.60;13.10;;;21.30;80.10;;;;;;2089203;28;20115;-69
2021/06/27 04:25:43;;;;;;;14.30;12.90;;;21.40;79.00;;;;;;2097295;28;20032;-69
2021/06/27 04:26:43;;;;;;;14.30;12.90;;;21.50;77.90;;;;;;2106466;28;20020;-69
2021/06/27 04:27:44;;;;;;;14.02;12.73;;;21.70;77.50;;;;;;2106581;28;20835;-69
2021/06/27 04:28:45;;;;;;;14.65;13.13;;;21.70;76.50;;;;;;2105505;28;20532;-69
2021/06/27 04:29:45;;;;;;;14.07;12.55;;;21.70;76.20;;;;;;2106158;28;20028;-69
2021/06/27 04:30:46;;;;;;;14.63;13.23;;;21.90;75.80;;;;;;2106066;28;20383;-69
2021/06/27 04:31:47;;;;;;;14.32;12.75;;;21.90;75.10;;;;;;2106180;28;20059;-69
2021/06/27 04:32:47;;;;;;;14.05;12.63;;;22.00;74.90;;;;;;2097350;28;20040;-69
2021/06/27 04:33:48;;;;;;;14.15;12.75;;;22.10;74.40;;;;;;2097674;28;20033;-69
2021/06/27 04:34:48;;;;;;;13.73;12.50;;;22.20;73.60;;;;;;2106492;28;20024;-69
2021/06/27 04:35:49;;;;;;;13.70;12.30;;;22.30;73.20;;;;;;2106442;28;20118;-69
2021/06/27 04:36:50;;;;;;;13.80;12.30;;;22.30;72.50;;;;;;2106559;28;20085;-70
2021/06/27 04:37:51;;;;;;;14.25;12.85;;;22.40;73.00;;;;;;2106489;28;20032;-70
2021/06/27 04:38:51;;;;;;;14.20;12.80;;;22.40;71.90;;;;;;2105209;28;20039;-69
2021/06/27 04:39:52;;;;;;;13.50;12.20;;;22.40;72.20;;;;;;2097290;28;20040;-70
2021/06/27 04:40:53;;;;;;;12.93;11.82;;;22.50;72.10;;;;;;2097732;28;20447;-70
2021/06/27 04:41:54;;;;;;;13.52;12.23;;;22.60;72.00;;;;;;2106360;28;20020;-69
2021/06/27 04:42:54;;;;;;;13.43;12.10;;;22.70;71.50;;;;;;2106469;28;20150;-70
2021/06/27 04:43:56;;;;;;;13.60;12.15;;;22.80;71.10;;;;;;2106448;28;20055;-69
2021/06/27 04:44:56;;;;;;;14.90;13.35;;;22.90;71.40;;;;;;2106158;28;20036;-69
2021/06/27 04:45:57;;;;;;;13.40;12.10;;;22.90;69.40;;;;;;2106434;28;20116;-69
2021/06/27 04:46:57;;;;;;;13.43;12.05;;;22.90;69.60;;;;;;2105816;28;20024;-69
2021/06/27 04:48:00;;;;;;;14.20;12.80;;;23.00;69.10;;;;;;2106447;28;20036;-69
2021/06/27 04:49:00;;;;;;;14.57;13.18;;;23.10;68.70;;;;;;2105280;28;20036;-69
2021/06/27 04:50:03;;;;;;;14.68;13.18;;;23.10;68.40;;;;;;2106185;28;20101;-69
2021/06/27 04:51:04;;;;;;;15.27;13.40;;;22.90;68.60;;;;;;2096919;28;20029;-70
2021/06/27 04:52:07;;;;;;;14.50;13.10;;;22.90;68.70;;;;;;2097326;28;20123;-69
2021/06/27 04:53:10;;;;;;;17.13;13.90;;;22.90;68.80;;;;;;2096959;28;20042;-69
2021/06/27 04:54:10;;;;;;;15.82;13.07;;;22.90;68.80;;;;;;2097548;28;20031;-69
2021/06/27 04:55:11;;;;;;;15.18;13.60;;;23.00;68.70;;;;;;2105916;28;20039;-70
2021/06/27 04:56:12;;;;;;;15.35;13.85;;;22.90;68.60;;;;;;2106089;28;20086;-69
2021/06/27 04:57:12;;;;;;;15.70;12.57;;;22.90;69.00;;;;;;2106178;28;20098;-69
2021/06/27 04:58:13;;;;;;;13.38;12.18;;;23.00;68.80;;;;;;2106134;28;20032;-69
2021/06/27 04:59:14;;;;;;;14.52;12.98;;;23.10;68.50;;;;;;2105057;28;20028;-69
2021/06/27 05:00:15;;;;;;;15.27;12.95;;;23.30;68.00;;;;;;2106063;28;20114;-69
2021/06/27 05:01:16;;;;;;;14.23;12.68;;;23.40;67.50;;;;;;2105881;28;20032;-69
2021/06/27 05:02:16;;;;;;;13.80;12.50;;;23.40;66.90;;;;;;2106292;28;20039;-69
2021/06/27 05:03:17;;;;;;;13.68;12.38;;;23.60;66.40;;;;;;2096649;28;20032;-70
2021/06/27 05:04:18;;;;;;;13.57;12.18;;;23.70;65.50;;;;;;2089015;28;20614;-69
2021/06/27 05:05:18;;;;;;;14.07;12.73;;;23.80;65.00;;;;;;2097058;28;20035;-69
2021/06/27 05:06:19;;;;;;;14.27;12.88;;;24.00;64.30;;;;;;2106242;28;20036;-69
2021/06/27 05:07:19;;;;;;;14.27;12.20;;;24.10;63.70;;;;;;2105939;28;20386;-69
2021/06/27 05:08:20;;;;;;;13.35;12.00;;;24.10;63.60;;;;;;2097270;28;20049;-70
2021/06/27 05:09:20;;;;;;;12.48;11.30;;;24.20;63.10;;;;;;2088063;28;20504;-69
2021/06/27 05:10:21;;;;;;;12.40;11.10;;;24.40;62.70;;;;;;2080830;28;20029;-69
2021/06/27 05:11:22;;;;;;;13.18;11.95;;;24.40;61.80;;;;;;2088950;28;20029;-71
2021/06/27 05:12:23;;;;;;;14.90;12.93;;;24.50;61.30;;;;;;2106239;28;20050;-69